Terminal Aerodrome Forecast
Issued by NWS

Home | Current Version | Previous Version | Graphics & Text | Print | Product List | Glossary On
Versions: 1 2 3 4 5 6 7 8 9 10 11 12 13
000
FTUS43 KBIS 281138
TAFDIK
TAF
KDIK 281138Z 2812/2912 02003KT P6SM FEW070 OVC100
     FM281400 05007KT P6SM -RA SCT025 OVC040
     FM281700 08012KT P6SM OVC050
     FM290200 09007KT P6SM BKN110=

USA.gov is the U.S. government's official web portal to all federal, state and local government web resources and services.